Terminal Aerodrome Forecast
Issued by NWS

Home | Current Version | Previous Version | Text Only | Print | Product List | Glossary On
Versions: 1 2 3 4 5 6 7 8 9 10 11 12 13
384
FTUS46 KSEW 031120
TAFBLI
TAF
KBLI 031120Z 0312/0412 17005KT P6SM SCT130
     FM032000 19007KT P6SM SCT130 BKN250
     FM040000 19008KT P6SM BKN070 OVC130
     FM040600 18008KT P6SM VCSH BKN045 OVC080=

USA.gov is the U.S. government's official web portal to all federal, state and local government web resources and services.